createdAt,value
2019-01-03T00:01:16.045Z,1.80
2019-01-03T00:04:03.773Z,1.80
2019-01-03T00:06:51.456Z,1.60
2019-01-03T00:12:14.567Z,1.90
2019-01-03T00:15:02.247Z,1.20
2019-01-03T00:17:49.974Z,1.60
2019-01-03T00:23:26.765Z,1.97
2019-01-03T00:26:14.452Z,1.77
2019-01-03T00:29:02.181Z,1.43
2019-01-03T00:31:49.860Z,1.63
2019-01-03T00:34:37.598Z,1.73
2019-01-03T00:40:14.367Z,1.23
2019-01-03T00:43:02.098Z,1.57
2019-01-03T00:45:49.795Z,1.77
2019-01-03T00:48:37.533Z,1.63
2019-01-03T00:54:14.333Z,1.70
2019-01-03T00:59:51.134Z,2.20
2019-01-03T01:02:38.819Z,1.67
2019-01-03T01:05:47.373Z,1.40
2019-01-03T01:08:35.110Z,1.03
2019-01-03T01:11:22.814Z,1.43
2019-01-03T01:14:10.512Z,1.60
2019-01-03T01:16:58.216Z,1.47
2019-01-03T01:22:21.427Z,2.03
2019-01-03T01:27:44.591Z,1.30
2019-01-03T01:33:07.620Z,1.43
2019-01-03T01:38:30.802Z,1.50
2019-01-03T01:41:18.581Z,1.30
2019-01-03T01:44:06.301Z,1.53
2019-01-03T01:46:54.011Z,1.40
2019-01-03T01:52:30.825Z,1.50
2019-01-03T01:55:18.508Z,1.60
2019-01-03T02:00:55.278Z,1.37
2019-01-03T02:03:42.964Z,1.23
2019-01-03T02:06:30.705Z,2.00
2019-01-03T02:09:18.401Z,2.13
2019-01-03T02:14:41.219Z,1.60
2019-01-03T02:17:28.940Z,1.13
2019-01-03T02:20:16.685Z,1.53
2019-01-03T02:23:04.388Z,1.30
2019-01-03T02:25:52.121Z,1.53
2019-01-03T02:31:28.939Z,2.20
2019-01-03T02:34:16.659Z,1.57
2019-01-03T02:37:04.397Z,1.57
2019-01-03T02:39:52.080Z,1.33
2019-01-03T02:42:39.809Z,1.33
2019-01-03T02:45:27.504Z,1.47
2019-01-03T02:48:15.237Z,1.70
2019-01-03T02:51:02.922Z,1.77
2019-01-03T02:56:26.246Z,1.60
2019-01-03T02:59:13.960Z,1.30
2019-01-03T03:02:01.679Z,1.63
2019-01-03T03:04:49.386Z,1.43
2019-01-03T03:07:37.125Z,1.20
2019-01-03T03:10:45.648Z,1.20
2019-01-03T03:13:33.364Z,1.40
2019-01-03T03:16:21.077Z,1.20
2019-01-03T03:21:54.372Z,1.40
2019-01-03T03:27:17.258Z,1.10
2019-01-03T03:30:04.987Z,1.60
2019-01-03T03:32:52.733Z,1.30
2019-01-03T03:41:04.996Z,1.57
2019-01-03T03:43:52.706Z,1.27
2019-01-03T03:46:40.434Z,1.50
2019-01-03T03:49:28.141Z,1.90
2019-01-03T03:52:15.854Z,1.80
2019-01-03T03:57:39.013Z,1.10
2019-01-03T04:00:47.544Z,1.53
2019-01-03T04:03:35.223Z,1.70
2019-01-03T04:06:22.969Z,1.27
2019-01-03T04:09:10.681Z,1.80
2019-01-03T04:11:58.400Z,1.27
2019-01-03T04:14:46.114Z,1.10
2019-01-03T04:17:33.821Z,1.60
2019-01-03T04:23:06.849Z,1.73
2019-01-03T04:25:54.569Z,1.77
2019-01-03T04:28:42.286Z,1.13
2019-01-03T04:31:30.053Z,1.50
2019-01-03T04:34:17.759Z,1.60
2019-01-03T04:37:05.468Z,1.77
2019-01-03T04:39:53.171Z,1.10
2019-01-03T04:42:40.887Z,1.57
2019-01-03T04:45:28.626Z,1.30
2019-01-03T04:48:16.313Z,1.90
2019-01-03T04:51:04.053Z,1.50
2019-01-03T04:53:51.737Z,1.30
2019-01-03T04:56:39.467Z,1.67
2019-01-03T05:02:16.321Z,1.77
2019-01-03T05:05:03.983Z,1.37
2019-01-03T05:07:51.716Z,1.40
2019-01-03T05:10:39.403Z,1.40
2019-01-03T05:13:27.124Z,1.60
2019-01-03T05:21:39.526Z,1.40
2019-01-03T05:24:27.230Z,1.27
2019-01-03T05:27:14.940Z,1.53
2019-01-03T05:30:02.660Z,1.50
2019-01-03T05:32:50.373Z,1.87
2019-01-03T05:35:38.084Z,1.40
2019-01-03T05:38:25.787Z,1.33
2019-01-03T05:49:33.521Z,1.80
2019-01-03T05:52:21.229Z,1.37
2019-01-03T05:57:54.964Z,1.20
2019-01-03T06:00:42.664Z,1.73
2019-01-03T06:03:30.363Z,1.70
2019-01-03T06:06:18.069Z,1.83
2019-01-03T06:09:05.789Z,1.30
2019-01-03T06:11:53.530Z,1.43
2019-01-03T06:14:41.201Z,1.20
2019-01-03T06:20:04.457Z,1.40
2019-01-03T06:22:52.162Z,1.63
2019-01-03T06:25:39.872Z,1.70
2019-01-03T06:28:27.582Z,1.23
2019-01-03T06:31:15.298Z,1.40
2019-01-03T06:45:04.152Z,1.17
2019-01-03T06:47:51.838Z,1.70
2019-01-03T06:50:39.565Z,1.07
2019-01-03T06:53:27.246Z,1.50
2019-01-03T06:56:14.972Z,1.13
2019-01-03T06:59:02.657Z,1.17
2019-01-03T07:04:35.696Z,1.27
2019-01-03T07:07:23.399Z,1.33
2019-01-03T07:10:11.146Z,1.63
2019-01-03T07:12:58.823Z,1.33
2019-01-03T07:15:46.560Z,1.60
2019-01-03T07:18:34.235Z,1.20
2019-01-03T07:21:27.301Z,1.17
2019-01-03T07:24:11.389Z,1.60
2019-01-03T07:26:59.119Z,1.80
2019-01-03T07:29:46.796Z,1.10
2019-01-03T07:32:34.543Z,1.10
2019-01-03T07:35:22.218Z,1.57
2019-01-03T07:38:09.946Z,1.30
2019-01-03T07:40:57.672Z,1.50
2019-01-03T07:46:34.440Z,1.70
2019-01-03T07:49:22.148Z,1.23
2019-01-03T07:52:09.848Z,1.27
2019-01-03T07:54:57.551Z,1.00
2019-01-03T07:57:45.253Z,1.50
2019-01-03T08:00:33.024Z,1.33
2019-01-03T08:08:41.831Z,1.27
2019-01-03T08:11:29.530Z,1.43
2019-01-03T08:14:17.244Z,1.43
2019-01-03T08:17:04.982Z,1.47
2019-01-03T08:19:52.666Z,1.80
2019-01-03T08:22:40.400Z,1.07
2019-01-03T08:28:17.188Z,1.37
2019-01-03T08:31:04.871Z,1.60
2019-01-03T08:33:52.591Z,1.53
2019-01-03T08:36:40.284Z,1.40
2019-01-03T08:39:28.074Z,1.47
2019-01-03T08:45:04.867Z,1.60
2019-01-03T08:47:52.570Z,1.10
2019-01-03T08:53:29.349Z,1.13
2019-01-03T08:59:06.143Z,1.30
2019-01-03T09:04:42.922Z,1.83
2019-01-03T09:07:30.613Z,1.20
2019-01-03T09:10:18.310Z,1.40
2019-01-03T09:13:06.014Z,1.43
2019-01-03T09:15:53.720Z,1.40
2019-01-03T09:18:41.423Z,1.30
2019-01-03T09:21:29.120Z,1.30
2019-01-03T09:24:16.843Z,1.23
2019-01-03T09:27:04.521Z,2.10
2019-01-03T09:29:52.244Z,1.63
2019-01-03T09:32:39.930Z,1.13
2019-01-03T09:35:27.661Z,1.50
2019-01-03T09:38:15.347Z,1.20
2019-01-03T09:41:03.080Z,1.17
2019-01-03T09:46:20.739Z,1.40
2019-01-03T09:48:49.298Z,1.67
2019-01-03T09:51:17.879Z,1.30
2019-01-03T09:53:46.434Z,1.23
2019-01-03T09:56:15.016Z,1.50
2019-01-03T09:58:43.581Z,1.60
2019-01-03T10:01:12.164Z,1.40
2019-01-03T10:03:40.728Z,1.60
2019-01-03T10:06:09.388Z,1.77
2019-01-03T10:08:37.974Z,1.60
2019-01-03T10:11:06.546Z,1.60
2019-01-03T10:13:35.101Z,1.80
2019-01-03T10:16:03.687Z,2.10
2019-01-03T10:18:32.239Z,1.93
2019-01-03T10:21:00.822Z,1.57
2019-01-03T10:23:29.387Z,1.40
2019-01-03T10:25:57.971Z,2.23
2019-01-03T10:28:26.588Z,1.83
2019-01-03T10:30:55.150Z,1.63
2019-01-03T10:33:23.739Z,1.53
2019-01-03T10:35:52.296Z,1.27
2019-01-03T10:38:21.170Z,1.60
2019-01-03T10:40:51.162Z,2.10
2019-01-03T10:43:19.749Z,1.87
2019-01-03T10:45:48.316Z,1.87
2019-01-03T10:48:16.899Z,1.60
2019-01-03T10:50:45.469Z,1.50
2019-01-03T10:53:14.057Z,1.80
2019-01-03T10:55:42.623Z,1.13
2019-01-03T10:58:11.206Z,2.03
2019-01-03T11:01:00.554Z,1.57
2019-01-03T11:03:29.200Z,1.80
2019-01-03T11:05:57.759Z,1.50
2019-01-03T11:08:26.338Z,1.50
2019-01-03T11:10:54.900Z,1.60
2019-01-03T11:13:23.487Z,1.70
2019-01-03T11:15:52.041Z,1.27
2019-01-03T11:18:20.618Z,1.70
2019-01-03T11:20:49.178Z,1.73
2019-01-03T11:23:17.763Z,1.60
2019-01-03T11:25:46.327Z,1.90
2019-01-03T11:28:14.915Z,1.83
2019-01-03T11:30:43.469Z,1.67
2019-01-03T11:33:12.048Z,1.67
2019-01-03T11:35:40.600Z,1.73
2019-01-03T11:38:09.163Z,1.80
2019-01-03T11:40:37.749Z,1.70
2019-01-03T11:43:06.314Z,1.63
2019-01-03T11:45:34.918Z,2.00
2019-01-03T11:48:24.333Z,1.93
2019-01-03T11:50:52.893Z,2.03
2019-01-03T11:53:21.457Z,2.10
2019-01-03T11:55:50.055Z,1.87
2019-01-03T11:58:18.605Z,2.03
2019-01-03T12:00:47.190Z,1.60
2019-01-03T12:03:15.749Z,2.07
2019-01-03T12:05:44.329Z,2.03
2019-01-03T12:08:12.903Z,1.93
2019-01-03T12:10:41.486Z,1.80
2019-01-03T12:13:10.075Z,2.20
2019-01-03T12:15:38.716Z,2.00
2019-01-03T12:18:27.902Z,1.80
2019-01-03T12:20:56.474Z,2.13
2019-01-03T12:23:25.031Z,2.20
2019-01-03T12:25:53.618Z,2.23
2019-01-03T12:28:22.167Z,2.10
2019-01-03T12:30:50.742Z,1.77
2019-01-03T12:33:19.300Z,1.47
2019-01-03T12:35:47.885Z,1.70
2019-01-03T12:38:16.446Z,1.83
2019-01-03T12:40:45.030Z,1.90
2019-01-03T12:43:13.593Z,1.80
2019-01-03T12:45:42.186Z,1.30
2019-01-03T12:48:10.739Z,1.90
2019-01-03T12:50:39.319Z,1.30
2019-01-03T12:53:07.878Z,1.70
2019-01-03T12:55:36.461Z,1.27
2019-01-03T12:58:05.033Z,2.30
2019-01-03T13:00:33.618Z,1.40
2019-01-03T13:03:02.184Z,1.53
2019-01-03T13:05:30.782Z,1.33
2019-01-03T13:07:59.339Z,1.80
2019-01-03T13:10:27.930Z,1.67
2019-01-03T13:12:58.213Z,2.07
2019-01-03T13:15:26.800Z,1.90
2019-01-03T13:17:55.374Z,1.30
2019-01-03T13:20:23.927Z,1.30
2019-01-03T13:22:52.520Z,1.53
2019-01-03T13:25:21.097Z,1.50
2019-01-03T13:27:49.686Z,1.60
2019-01-03T13:30:18.244Z,1.50
2019-01-03T13:32:46.834Z,1.47
2019-01-03T13:35:15.419Z,1.50
2019-01-03T13:38:03.337Z,1.70
2019-01-03T13:40:31.895Z,1.87
2019-01-03T13:43:00.472Z,1.23
2019-01-03T13:45:29.031Z,1.53
2019-01-03T13:47:57.610Z,1.60
2019-01-03T13:50:26.190Z,1.67
2019-01-03T13:52:54.776Z,1.57
2019-01-03T13:55:23.361Z,1.80
2019-01-03T13:57:51.928Z,1.43
2019-01-03T14:00:28.052Z,1.63
2019-01-03T14:02:56.639Z,1.97
2019-01-03T14:05:25.201Z,1.50
2019-01-03T14:07:53.782Z,2.47
2019-01-03T14:10:22.420Z,1.57
2019-01-03T14:12:51.019Z,2.03
2019-01-03T14:15:19.589Z,2.03
2019-01-03T14:17:48.188Z,1.80
2019-01-03T14:20:16.743Z,1.73
2019-01-03T14:22:45.329Z,2.57
2019-01-03T14:25:34.714Z,2.50
2019-01-03T14:28:03.300Z,2.20
2019-01-03T14:30:31.880Z,2.57
2019-01-03T14:33:00.463Z,1.90
2019-01-03T14:35:29.033Z,1.90
2019-01-03T14:37:57.588Z,2.23
2019-01-03T14:40:26.163Z,1.87
2019-01-03T14:42:54.715Z,1.93
2019-01-03T14:45:23.306Z,2.03
2019-01-03T14:47:51.867Z,2.00
2019-01-03T14:50:20.472Z,1.90
2019-01-03T14:52:49.033Z,2.63
2019-01-03T14:55:17.632Z,2.53
2019-01-03T14:57:46.210Z,1.87
2019-01-03T15:02:49.994Z,2.43
2019-01-03T15:05:18.579Z,2.53
2019-01-03T15:07:47.145Z,2.57
2019-01-03T15:10:15.726Z,2.50
2019-01-03T15:12:44.292Z,2.13
2019-01-03T15:15:12.862Z,3.13
2019-01-03T15:17:41.417Z,2.63
2019-01-03T15:20:30.789Z,2.67
2019-01-03T15:22:59.357Z,3.10
2019-01-03T15:25:27.939Z,2.40
2019-01-03T15:27:56.506Z,2.87
2019-01-03T15:30:25.088Z,2.60
2019-01-03T15:32:53.644Z,2.43
2019-01-03T15:35:22.224Z,2.27
2019-01-03T15:37:50.794Z,2.40
2019-01-03T15:40:19.384Z,3.00
2019-01-03T15:42:47.946Z,2.50
2019-01-03T15:45:16.524Z,2.97
2019-01-03T15:47:45.094Z,2.80
2019-01-03T15:50:13.674Z,2.73
2019-01-03T15:52:42.243Z,2.67
2019-01-03T15:55:10.825Z,2.40
2019-01-03T15:57:39.373Z,2.67
2019-01-03T16:00:28.748Z,2.53
2019-01-03T16:02:57.314Z,2.73
2019-01-03T16:05:25.967Z,3.00
2019-01-03T16:07:54.531Z,2.80
2019-01-03T16:10:23.113Z,2.33
2019-01-03T16:12:51.672Z,2.43
2019-01-03T16:15:20.252Z,3.07
2019-01-03T16:17:48.816Z,2.43
2019-01-03T16:20:17.403Z,2.80
2019-01-03T16:22:45.970Z,2.87
2019-01-03T16:25:14.555Z,2.70
2019-01-03T16:27:43.124Z,2.83
2019-01-03T16:30:11.769Z,3.17
2019-01-03T16:32:40.337Z,2.30
2019-01-03T16:35:08.925Z,2.70
2019-01-03T16:37:37.490Z,2.30
2019-01-03T16:40:26.872Z,2.57
2019-01-03T16:42:55.422Z,2.57
2019-01-03T16:45:24.004Z,2.90
2019-01-03T16:47:52.556Z,2.63
2019-01-03T16:50:21.164Z,2.83
2019-01-03T16:52:49.727Z,2.90
2019-01-03T16:55:37.457Z,2.73
2019-01-03T16:58:06.012Z,3.00
2019-01-03T17:00:34.586Z,2.77
2019-01-03T17:03:03.170Z,2.47
2019-01-03T17:05:31.727Z,3.27
2019-01-03T17:08:00.312Z,2.73
2019-01-03T17:10:28.870Z,3.13
2019-01-03T17:12:57.459Z,3.10
2019-01-03T17:15:26.014Z,2.70
2019-01-03T17:17:54.596Z,2.67
2019-01-03T17:20:23.160Z,2.33
2019-01-03T17:22:51.747Z,3.27
2019-01-03T17:25:20.318Z,3.10
2019-01-03T17:27:48.902Z,2.73
2019-01-03T17:30:17.471Z,2.80
2019-01-03T17:32:46.055Z,2.43
2019-01-03T17:35:14.606Z,2.43
2019-01-03T17:37:43.181Z,3.60
2019-01-03T17:40:32.529Z,3.10
2019-01-03T17:43:01.112Z,3.43
2019-01-03T17:45:29.675Z,3.30
2019-01-03T17:47:58.256Z,3.23
2019-01-03T17:50:26.821Z,2.37
2019-01-03T17:52:55.406Z,2.60
2019-01-03T17:55:23.963Z,2.57
2019-01-03T17:57:52.545Z,2.67
2019-01-03T18:03:10.190Z,2.90
2019-01-03T18:05:38.740Z,2.40
2019-01-03T18:08:07.327Z,2.83
2019-01-03T18:10:35.893Z,2.10
2019-01-03T18:13:04.486Z,2.40
2019-01-03T18:15:33.041Z,3.90
2019-01-03T18:18:01.626Z,2.97
2019-01-03T18:20:30.204Z,2.90
2019-01-03T18:22:58.810Z,2.97
2019-01-03T18:25:27.363Z,2.53
2019-01-03T18:27:55.974Z,2.97
2019-01-03T18:30:24.535Z,3.03
2019-01-03T18:32:53.094Z,3.43
2019-01-03T18:35:21.681Z,3.00
2019-01-03T18:37:50.242Z,3.03
2019-01-03T18:40:18.827Z,2.73
2019-01-03T18:42:47.386Z,3.23
2019-01-03T18:45:36.757Z,2.40
2019-01-03T18:48:05.322Z,3.43
2019-01-03T18:50:34.190Z,3.00
2019-01-03T18:53:04.195Z,2.93
2019-01-03T18:55:32.809Z,3.23
2019-01-03T18:58:01.339Z,3.03
2019-01-03T19:00:29.922Z,2.77
2019-01-03T19:02:58.485Z,3.07
2019-01-03T19:05:27.064Z,2.50
2019-01-03T19:07:55.632Z,2.27
2019-01-03T19:10:28.306Z,2.90
2019-01-03T19:12:54.506Z,3.30
2019-01-03T19:15:23.093Z,2.80
2019-01-03T19:17:51.655Z,2.30
2019-01-03T19:20:20.244Z,2.93
2019-01-03T19:22:48.876Z,2.77
2019-01-03T19:25:17.532Z,3.23
2019-01-03T19:27:46.162Z,3.10
2019-01-03T19:30:14.758Z,3.07
2019-01-03T19:32:43.314Z,3.13
2019-01-03T19:35:32.681Z,3.37
2019-01-03T19:38:01.247Z,3.73
2019-01-03T19:40:29.818Z,3.30
2019-01-03T19:42:58.381Z,3.10
2019-01-03T19:45:26.968Z,3.07
2019-01-03T19:47:55.541Z,2.63
2019-01-03T19:50:24.130Z,2.30
2019-01-03T19:52:52.697Z,2.27
2019-01-03T19:55:21.283Z,2.67
2019-01-03T19:57:49.844Z,3.13
2019-01-03T20:00:18.427Z,2.57
2019-01-03T20:02:46.993Z,2.87
2019-01-03T20:05:15.583Z,3.07
2019-01-03T20:07:44.212Z,2.83
2019-01-03T20:10:33.594Z,3.40
2019-01-03T20:13:02.151Z,2.77
2019-01-03T20:15:30.736Z,3.47
2019-01-03T20:17:59.300Z,2.87
2019-01-03T20:20:27.953Z,3.27
2019-01-03T20:22:56.499Z,3.00
2019-01-03T20:25:25.153Z,2.97
2019-01-03T20:27:53.737Z,2.90
2019-01-03T20:30:22.296Z,3.80
2019-01-03T20:32:50.886Z,4.07
2019-01-03T20:35:19.433Z,3.63
2019-01-03T20:37:48.014Z,4.00
2019-01-03T20:40:16.579Z,3.50
2019-01-03T20:42:45.162Z,2.97
2019-01-03T20:45:13.793Z,3.07
2019-01-03T20:47:42.387Z,3.13
2019-01-03T20:50:31.723Z,3.50
2019-01-03T20:53:00.317Z,2.53
2019-01-03T20:55:28.949Z,2.90
2019-01-03T20:57:57.542Z,3.30
2019-01-03T21:00:26.097Z,3.70
2019-01-03T21:02:54.772Z,3.97
2019-01-03T21:05:23.406Z,3.33
2019-01-03T21:07:51.998Z,3.70
2019-01-03T21:10:20.562Z,3.90
2019-01-03T21:12:49.159Z,3.80
2019-01-03T21:15:17.801Z,3.60
2019-01-03T21:17:46.379Z,2.63
2019-01-03T21:20:35.720Z,3.03
2019-01-03T21:23:04.313Z,3.10
2019-01-03T21:25:32.867Z,3.03
2019-01-03T21:28:01.458Z,3.17
2019-01-03T21:30:30.019Z,3.17
2019-01-03T21:32:58.618Z,2.90
2019-01-03T21:35:27.195Z,3.60
2019-01-03T21:37:55.849Z,3.10
2019-01-03T21:40:24.417Z,3.30
2019-01-03T21:42:52.973Z,3.93
2019-01-03T21:45:21.623Z,3.33
2019-01-03T21:47:50.185Z,3.60
2019-01-03T21:50:18.766Z,3.33
2019-01-03T21:52:47.321Z,4.37
2019-01-03T21:55:15.911Z,3.80
2019-01-03T21:57:44.469Z,3.90
2019-01-03T22:00:13.196Z,3.13
2019-01-03T22:02:41.759Z,3.57
2019-01-03T22:05:10.449Z,3.33
2019-01-03T22:07:38.983Z,3.93
2019-01-03T22:10:28.360Z,3.97
2019-01-03T22:12:56.931Z,3.33
2019-01-03T22:15:25.528Z,3.30
2019-01-03T22:17:54.116Z,3.13
2019-01-03T22:20:22.698Z,3.57
2019-01-03T22:22:51.276Z,3.20
2019-01-03T22:25:19.861Z,3.20
2019-01-03T22:27:48.430Z,3.03
2019-01-03T22:30:17.025Z,3.43
2019-01-03T22:32:45.613Z,3.70
2019-01-03T22:35:14.196Z,3.37
2019-01-03T22:37:42.756Z,4.37
2019-01-03T22:40:11.354Z,4.20
2019-01-03T22:42:39.951Z,3.93
2019-01-03T22:45:29.336Z,3.63
2019-01-03T22:47:57.901Z,3.63
2019-01-03T22:50:26.499Z,3.73
2019-01-03T22:52:55.062Z,3.50
2019-01-03T22:55:23.653Z,3.60
2019-01-03T22:57:52.236Z,3.60
2019-01-03T23:00:41.099Z,3.67
2019-01-03T23:03:09.668Z,3.83
2019-01-03T23:05:38.268Z,3.60
2019-01-03T23:08:06.825Z,3.53
2019-01-03T23:10:35.415Z,4.37
2019-01-03T23:13:03.980Z,2.97
2019-01-03T23:15:32.637Z,3.07
2019-01-03T23:18:01.262Z,3.53
2019-01-03T23:20:29.839Z,3.50
2019-01-03T23:22:58.441Z,3.17
2019-01-03T23:25:47.853Z,3.10
2019-01-03T23:28:16.426Z,3.07
2019-01-03T23:30:44.997Z,3.17
2019-01-03T23:33:13.580Z,3.60
2019-01-03T23:35:42.141Z,3.23
2019-01-03T23:38:10.740Z,3.27
2019-01-03T23:40:39.306Z,3.30
2019-01-03T23:43:07.902Z,3.47
2019-01-03T23:45:36.533Z,3.60
2019-01-03T23:48:05.123Z,3.80
2019-01-03T23:50:33.756Z,3.60
2019-01-03T23:53:02.345Z,3.13
2019-01-03T23:55:51.697Z,3.20
